Авиационная погода в Берлевоге

Регион: 
Погода METAR: 
ENBV 282220Z AUTO 00000KT 9999 NCD 16/13 Q1019
Время наблюдения
2022-06-28T22:20:00Z
Температура C
16.0
Точка росы
13.0
Направление ветра
0
Скорость ветра (узлы)
0
Метео видимость
6.21
Облачность
CLR
Нижняя граница облачности (футы)
Явления погоды
Условия полета
VFR
CLR — нет облаков ниже 3000 м